VIJP/JAI METAR and TAF weather

Enter ICAO airport designator
Station Type Date Time Source
VIJP METAR 2020/09/25 07:00 UTC NOAA

VIJP 250700Z 29004KT 6000 NSC 35/19 Q1005 NOSIG


Station Type Date Time Source
VIJP Decoded METAR 2020/09/25 07:00 UTC NOAA

Jaipur / Sanganer, India (VIJP) 26-49N 075-48E 390M
Sep 25, 2020 - 03:00 AM EDT / 2020.09.25 0700 UTC
Wind: from the WNW (290 degrees) at 5 MPH (4 KT):0
Visibility: 3 mile(s):0
Temperature: 95 F (35 C)
Heat index: 98.4 F (36.9 C):1
Dew Point: 66 F (19 C)
Relative Humidity: 39%
Pressure (altimeter): 29.68 in. Hg (1005 hPa)
ob: VIJP 250700Z 29004KT 6000 NSC 35/19 Q1005 NOSIG
cycle: 7

Station Type Date Time Source
VIJP TAF 2020/09/25 06:00 UTC NOAA

TAF VIJP 250500Z 2506/2612 27005KT 5000 HZ FEW030 SCT100
BECMG 2512/2514 VRB03KT 3000 HZ
BECMG 2604/2606 29005KT 5000 HZ SCT030

Example: see airport list